createdAt,value
2023-04-16T00:00:14.599Z,5.20
2023-04-16T00:02:42.717Z,5.93
2023-04-16T00:05:13.576Z,6.97
2023-04-16T00:07:42.262Z,7.50
2023-04-16T00:10:10.595Z,8.17
2023-04-16T00:12:38.617Z,9.77
2023-04-16T00:15:07.358Z,7.33
2023-04-16T00:17:35.382Z,7.50
2023-04-16T00:20:03.578Z,6.50
2023-04-16T00:22:32.983Z,7.97
2023-04-16T00:25:00.915Z,6.50
2023-04-16T00:27:28.853Z,9.27
2023-04-16T00:29:56.846Z,8.70
2023-04-16T00:32:24.953Z,8.30
2023-04-16T00:34:53.001Z,7.27
2023-04-16T00:37:20.975Z,12.27
2023-04-16T00:39:50.321Z,6.90
2023-04-16T00:42:18.237Z,6.97
2023-04-16T00:44:46.203Z,8.20
2023-04-16T00:47:14.205Z,9.17
2023-04-16T00:49:42.560Z,12.50
2023-04-16T00:52:12.685Z,9.37
2023-04-16T00:54:41.131Z,8.17
2023-04-16T00:57:11.200Z,8.77
2023-04-16T00:59:39.145Z,8.77
2023-04-16T01:02:07.419Z,9.47
2023-04-16T01:04:36.464Z,11.87
2023-04-16T01:07:04.517Z,14.13
2023-04-16T01:09:32.408Z,14.67
2023-04-16T01:12:00.476Z,12.97
2023-04-16T01:14:29.772Z,13.33
2023-04-16T01:16:57.758Z,15.17
2023-04-16T01:19:25.767Z,11.63
2023-04-16T01:21:55.044Z,11.43
2023-04-16T01:24:23.041Z,10.40
2023-04-16T01:26:50.966Z,10.47
2023-04-16T01:29:18.837Z,10.20
2023-04-16T01:31:47.490Z,9.83
2023-04-16T01:34:15.537Z,9.90
2023-04-16T01:36:43.519Z,10.57
2023-04-16T01:39:15.750Z,10.50
2023-04-16T01:41:43.987Z,9.10
2023-04-16T01:44:12.003Z,9.87
2023-04-16T01:46:40.796Z,10.07
2023-04-16T01:49:08.981Z,9.00
2023-04-16T01:51:37.037Z,11.43
2023-04-16T01:54:05.105Z,11.33
2023-04-16T01:56:35.554Z,9.50
2023-04-16T01:59:03.521Z,10.27
2023-04-16T02:01:31.860Z,11.00
2023-04-16T02:04:00.318Z,12.27
2023-04-16T02:06:28.644Z,9.10
2023-04-16T02:08:56.705Z,9.03
2023-04-16T02:11:24.684Z,10.03
2023-04-16T02:13:54.026Z,11.13
2023-04-16T02:16:21.953Z,11.40
2023-04-16T02:18:49.985Z,10.73
2023-04-16T02:21:18.026Z,12.13
2023-04-16T02:23:47.978Z,11.00
2023-04-16T02:26:15.954Z,12.70
2023-04-16T02:28:43.883Z,14.50
2023-04-16T02:31:14.981Z,12.57
2023-04-16T02:33:42.945Z,12.17
2023-04-16T02:36:12.929Z,11.20
2023-04-16T02:38:40.940Z,12.87
2023-04-16T02:41:08.955Z,11.17
2023-04-16T02:43:36.993Z,11.87
2023-04-16T02:46:05.089Z,11.10
2023-04-16T02:48:34.497Z,12.80
2023-04-16T02:51:02.473Z,12.40
2023-04-16T02:53:30.435Z,12.50
2023-04-16T02:55:58.461Z,10.37
2023-04-16T02:58:27.569Z,9.23
2023-04-16T03:00:56.089Z,14.50
2023-04-16T03:03:24.130Z,9.77
2023-04-16T03:05:53.504Z,11.00
2023-04-16T03:08:21.439Z,9.93
2023-04-16T03:10:49.432Z,10.60
2023-04-16T03:13:17.397Z,7.87
2023-04-16T03:15:49.769Z,8.27
2023-04-16T03:18:17.859Z,9.13
2023-04-16T03:20:45.956Z,9.63
2023-04-16T03:23:15.297Z,10.10
2023-04-16T03:25:46.709Z,11.10
2023-04-16T03:28:14.712Z,10.53
2023-04-16T03:30:42.629Z,8.77
2023-04-16T03:33:10.812Z,11.40
2023-04-16T03:35:38.834Z,9.77
2023-04-16T03:38:06.807Z,7.43
2023-04-16T03:40:36.155Z,9.80
2023-04-16T03:43:04.111Z,9.43
2023-04-16T03:45:32.045Z,8.63
2023-04-16T03:47:59.994Z,10.93
2023-04-16T03:50:27.974Z,9.27
2023-04-16T03:52:56.033Z,9.70
2023-04-16T03:55:23.966Z,7.40
2023-04-16T03:57:53.270Z,7.50
2023-04-16T04:00:21.386Z,8.30
2023-04-16T04:02:49.390Z,9.80
2023-04-16T04:05:17.741Z,9.93
2023-04-16T04:07:45.790Z,8.33
2023-04-16T04:10:14.125Z,11.93
2023-04-16T04:12:42.069Z,10.43
2023-04-16T04:15:13.083Z,10.40
2023-04-16T04:17:41.136Z,9.43
2023-04-16T04:20:09.785Z,9.93
2023-04-16T04:22:37.739Z,9.13
2023-04-16T04:25:06.437Z,9.23
2023-04-16T04:27:34.379Z,7.97
2023-04-16T04:30:02.392Z,11.00
2023-04-16T04:32:31.750Z,10.63
2023-04-16T04:35:01.294Z,8.47
2023-04-16T04:37:30.604Z,7.97
2023-04-16T04:39:58.546Z,10.60
2023-04-16T04:42:27.303Z,11.57
2023-04-16T04:44:55.249Z,9.30
2023-04-16T04:47:23.256Z,9.27
2023-04-16T04:49:52.792Z,8.27
2023-04-16T04:52:21.610Z,9.63
2023-04-16T04:54:49.609Z,7.73
2023-04-16T04:57:17.690Z,8.60
2023-04-16T04:59:45.704Z,6.90
2023-04-16T05:02:13.723Z,9.07
2023-04-16T05:04:41.926Z,9.50
2023-04-16T05:07:11.317Z,7.83
2023-04-16T05:09:39.243Z,7.60
2023-04-16T05:12:07.269Z,8.03
2023-04-16T05:14:36.366Z,9.73
2023-04-16T05:17:04.384Z,8.30
2023-04-16T05:19:32.505Z,7.93
2023-04-16T05:22:02.500Z,7.97
2023-04-16T05:24:31.843Z,8.80
2023-04-16T05:26:59.789Z,9.53
2023-04-16T05:29:27.720Z,8.83
2023-04-16T05:31:55.672Z,9.20
2023-04-16T05:34:23.660Z,7.50
2023-04-16T05:36:51.609Z,6.50
2023-04-16T05:39:19.912Z,7.87
2023-04-16T05:41:49.288Z,9.83
2023-04-16T05:44:17.213Z,9.47
2023-04-16T05:46:45.176Z,8.20
2023-04-16T05:49:13.105Z,7.63
2023-04-16T05:51:41.210Z,9.67
2023-04-16T05:54:09.139Z,8.87
2023-04-16T05:56:37.162Z,8.43
2023-04-16T05:59:06.531Z,8.13
2023-04-16T06:01:35.748Z,10.10
2023-04-16T06:04:04.831Z,8.07
2023-04-16T06:06:33.121Z,7.73
2023-04-16T06:09:01.220Z,8.87
2023-04-16T06:11:30.931Z,8.03
2023-04-16T06:13:58.880Z,8.43
2023-04-16T06:16:28.261Z,6.77
2023-04-16T06:18:56.588Z,8.47
2023-04-16T06:21:24.734Z,9.47
2023-04-16T06:23:52.875Z,6.27
2023-04-16T06:26:20.882Z,6.83
2023-04-16T06:28:49.090Z,9.03
2023-04-16T06:31:17.163Z,9.17
2023-04-16T06:33:46.764Z,13.20
2023-04-16T06:36:14.991Z,9.37
2023-04-16T06:38:43.012Z,10.63
2023-04-16T06:41:11.045Z,10.57
2023-04-16T06:43:39.178Z,10.80
2023-04-16T06:46:07.128Z,7.03
2023-04-16T06:48:35.110Z,7.73
2023-04-16T06:51:04.649Z,5.87
2023-04-16T06:53:33.112Z,7.20
2023-04-16T06:56:01.089Z,6.13
2023-04-16T06:58:29.550Z,7.33
2023-04-16T07:00:57.713Z,6.83
2023-04-16T07:03:26.480Z,6.50
2023-04-16T07:05:54.896Z,5.77
2023-04-16T07:08:26.350Z,8.87
2023-04-16T07:10:55.005Z,5.23
2023-04-16T07:13:23.264Z,6.33
2023-04-16T07:15:51.249Z,6.00
2023-04-16T07:18:20.706Z,5.17
2023-04-16T07:20:49.477Z,5.40
2023-04-16T07:23:17.463Z,5.67
2023-04-16T07:25:46.816Z,7.27
2023-04-16T07:28:16.704Z,8.07
2023-04-16T07:30:44.889Z,5.20
2023-04-16T07:33:12.818Z,8.17
2023-04-16T07:35:40.772Z,6.40
2023-04-16T07:38:08.698Z,7.73
2023-04-16T07:40:38.614Z,6.27
2023-04-16T07:43:08.368Z,7.93
2023-04-16T07:45:36.410Z,5.37
2023-04-16T07:48:05.450Z,5.90
2023-04-16T07:50:33.715Z,7.63
2023-04-16T07:53:01.755Z,8.37
2023-04-16T07:55:29.758Z,8.67
2023-04-16T07:57:57.688Z,7.67
2023-04-16T08:00:27.993Z,5.03
2023-04-16T08:02:56.581Z,5.83
2023-04-16T08:05:24.785Z,5.67
2023-04-16T08:07:52.816Z,6.27
2023-04-16T08:10:20.851Z,5.82
2023-04-16T08:12:48.767Z,8.10
2023-04-16T08:15:16.849Z,6.20
2023-04-16T08:17:46.379Z,7.75
2023-04-16T08:20:17.020Z,5.93
2023-04-16T08:22:47.301Z,4.80
2023-04-16T08:25:15.654Z,5.05
2023-04-16T08:27:43.806Z,5.60
2023-04-16T08:30:12.295Z,5.95
2023-04-16T08:32:40.415Z,5.32
2023-04-16T08:35:10.970Z,6.53
2023-04-16T08:37:38.987Z,5.25
2023-04-16T08:40:08.274Z,6.22
2023-04-16T08:42:45.062Z,5.00
2023-04-16T08:45:17.929Z,5.15
2023-04-16T08:47:48.172Z,7.85
2023-04-16T08:50:18.935Z,5.20
2023-04-16T08:52:52.066Z,4.25
2023-04-16T08:55:22.582Z,4.38
2023-04-16T08:57:54.608Z,4.25
2023-04-16T09:00:22.961Z,6.63
2023-04-16T09:02:51.844Z,5.63
2023-04-16T09:05:25.554Z,4.07
2023-04-16T09:07:54.322Z,4.05
2023-04-16T09:10:23.052Z,5.35
2023-04-16T09:12:51.307Z,5.63
2023-04-16T09:15:22.197Z,3.67
2023-04-16T09:17:50.200Z,4.60
2023-04-16T09:20:18.211Z,6.72
2023-04-16T09:22:48.481Z,4.90
2023-04-16T09:25:16.676Z,5.90
2023-04-16T09:27:45.460Z,5.65
2023-04-16T09:30:24.056Z,6.82
2023-04-16T09:32:53.245Z,5.00
2023-04-16T09:35:21.711Z,4.90
2023-04-16T09:37:58.987Z,4.68
2023-04-16T09:40:30.522Z,5.28
2023-04-16T09:43:00.971Z,4.53
2023-04-16T09:45:32.858Z,3.38
2023-04-16T09:48:05.726Z,4.38
2023-04-16T09:50:33.805Z,5.28
2023-04-16T09:53:04.690Z,3.97
2023-04-16T09:55:33.814Z,5.72
2023-04-16T09:58:02.733Z,4.18
2023-04-16T10:00:31.919Z,4.20
2023-04-16T10:03:06.874Z,4.95
2023-04-16T10:05:35.684Z,4.30
2023-04-16T10:08:12.294Z,5.07
2023-04-16T10:10:40.517Z,5.72
2023-04-16T10:13:08.964Z,4.35
2023-04-16T10:15:37.306Z,4.63
2023-04-16T10:18:06.426Z,4.65
2023-04-16T10:20:34.589Z,3.45
2023-04-16T10:23:04.871Z,3.15
2023-04-16T10:25:33.732Z,4.55
2023-04-16T10:28:01.921Z,4.63
2023-04-16T10:30:30.601Z,4.15
2023-04-16T10:33:00.563Z,3.50
2023-04-16T10:35:28.774Z,4.78
2023-04-16T10:37:58.129Z,3.63
2023-04-16T10:40:29.536Z,4.82
2023-04-16T10:42:58.266Z,4.40
2023-04-16T10:45:33.693Z,4.20
2023-04-16T10:48:08.719Z,3.55
2023-04-16T10:50:39.769Z,3.47
2023-04-16T10:53:25.774Z,4.45
2023-04-16T10:56:13.065Z,3.47
2023-04-16T10:58:41.232Z,3.33
2023-04-16T11:01:13.437Z,4.32
2023-04-16T11:03:48.451Z,4.30
2023-04-16T11:06:18.068Z,3.25
2023-04-16T11:08:54.432Z,4.00
2023-04-16T11:11:25.004Z,4.18
2023-04-16T11:13:58.006Z,6.95
2023-04-16T11:16:28.466Z,3.45
2023-04-16T11:18:57.228Z,5.00
2023-04-16T11:21:26.727Z,5.05
2023-04-16T11:23:55.182Z,4.13
2023-04-16T11:26:28.912Z,4.82
2023-04-16T11:28:57.509Z,3.80
2023-04-16T11:31:27.345Z,5.18
2023-04-16T11:33:57.884Z,6.78
2023-04-16T11:36:27.837Z,4.50
2023-04-16T11:39:03.787Z,7.72
2023-04-16T11:41:33.231Z,2.95
2023-04-16T11:44:01.411Z,5.32
2023-04-16T11:46:40.150Z,5.82
2023-04-16T11:49:08.349Z,4.13
2023-04-16T11:51:41.154Z,3.28
2023-04-16T11:54:12.315Z,3.90
2023-04-16T11:56:47.882Z,4.68
2023-04-16T11:59:17.748Z,3.45
2023-04-16T12:01:49.755Z,3.97
2023-04-16T12:04:20.322Z,3.38
2023-04-16T12:07:11.374Z,3.65
2023-04-16T12:09:41.060Z,2.88
2023-04-16T12:12:31.179Z,2.97
2023-04-16T12:15:03.267Z,3.60
2023-04-16T12:17:31.526Z,3.38
2023-04-16T12:20:00.787Z,4.65
2023-04-16T12:22:30.473Z,5.20
2023-04-16T12:25:03.109Z,3.55
2023-04-16T12:27:47.052Z,5.65
2023-04-16T12:30:16.220Z,4.25
2023-04-16T12:32:46.056Z,3.38
2023-04-16T12:35:14.521Z,2.95
2023-04-16T12:37:42.635Z,3.38
2023-04-16T12:40:11.518Z,3.15
2023-04-16T12:42:39.612Z,3.67
2023-04-16T12:45:09.614Z,3.05
2023-04-16T12:47:37.504Z,2.90
2023-04-16T12:50:06.085Z,3.65
2023-04-16T12:52:34.084Z,3.33
2023-04-16T12:55:03.063Z,4.60
2023-04-16T12:57:31.183Z,4.13
2023-04-16T13:00:02.117Z,3.60
2023-04-16T13:02:32.535Z,5.13
2023-04-16T13:05:00.666Z,4.32
2023-04-16T13:07:29.195Z,4.10
2023-04-16T13:09:57.118Z,2.28
2023-04-16T13:12:25.060Z,2.95
2023-04-16T13:14:53.070Z,4.50
2023-04-16T13:17:21.116Z,3.63
2023-04-16T13:19:50.446Z,4.82
2023-04-16T13:22:18.682Z,4.20
2023-04-16T13:24:46.983Z,3.55
2023-04-16T13:27:16.175Z,4.78
2023-04-16T13:29:44.696Z,5.32
2023-04-16T13:32:13.838Z,4.50
2023-04-16T13:34:42.051Z,5.25
2023-04-16T13:37:11.469Z,4.95
2023-04-16T13:39:39.411Z,3.93
2023-04-16T13:42:07.523Z,3.17
2023-04-16T13:44:35.589Z,5.10
2023-04-16T13:47:03.753Z,4.57
2023-04-16T13:49:35.649Z,4.83
2023-04-16T13:52:04.071Z,4.40
2023-04-16T13:54:33.605Z,4.63
2023-04-16T13:57:03.157Z,5.50
2023-04-16T13:59:31.225Z,4.40
2023-04-16T14:01:59.232Z,5.27
2023-04-16T14:04:27.306Z,2.97
2023-04-16T14:06:55.503Z,7.37
2023-04-16T14:09:23.479Z,3.67
2023-04-16T14:11:53.039Z,4.80
2023-04-16T14:14:21.042Z,6.27
2023-04-16T14:16:49.276Z,6.57
2023-04-16T14:19:17.568Z,9.27
2023-04-16T14:21:45.813Z,5.43
2023-04-16T14:24:14.173Z,6.53
2023-04-16T14:26:44.254Z,5.97
2023-04-16T14:29:13.936Z,5.40
2023-04-16T14:31:42.159Z,5.90
2023-04-16T14:34:10.414Z,8.23
2023-04-16T14:36:38.440Z,4.17
2023-04-16T14:39:06.591Z,8.50
2023-04-16T14:41:34.641Z,4.20
2023-04-16T14:44:04.287Z,8.50
2023-04-16T14:46:33.774Z,6.87
2023-04-16T14:49:02.160Z,6.57
2023-04-16T14:51:30.171Z,8.03
2023-04-16T14:53:58.382Z,5.57
2023-04-16T14:56:26.495Z,4.50
2023-04-16T14:58:54.496Z,4.53
2023-04-16T15:01:22.622Z,5.13
2023-04-16T15:03:52.202Z,5.13
2023-04-16T15:06:20.350Z,4.83
2023-04-16T15:08:48.400Z,5.17
2023-04-16T15:11:16.398Z,6.23
2023-04-16T15:13:44.381Z,3.83
2023-04-16T15:16:13.081Z,3.70
2023-04-16T15:18:41.185Z,5.83
2023-04-16T15:21:12.526Z,4.73
2023-04-16T15:23:40.866Z,5.07
2023-04-16T15:26:08.987Z,5.50
2023-04-16T15:28:36.987Z,6.03
2023-04-16T15:31:05.233Z,5.70
2023-04-16T15:33:33.443Z,4.33
2023-04-16T15:36:01.521Z,5.07
2023-04-16T15:38:31.361Z,6.17
2023-04-16T15:41:00.956Z,4.57
2023-04-16T15:43:29.993Z,4.57
2023-04-16T15:45:57.988Z,4.57
2023-04-16T15:48:26.104Z,4.00
2023-04-16T15:50:55.761Z,4.57
2023-04-16T15:53:24.127Z,4.67
2023-04-16T15:55:53.978Z,5.30
2023-04-16T15:58:23.069Z,3.53
2023-04-16T16:00:51.054Z,5.07
2023-04-16T16:03:19.592Z,4.00
2023-04-16T16:05:48.602Z,4.40
2023-04-16T16:08:16.885Z,4.30
2023-04-16T16:10:44.905Z,4.03
2023-04-16T16:13:18.120Z,3.57
2023-04-16T16:15:47.189Z,5.33
2023-04-16T16:18:15.190Z,5.83
2023-04-16T16:20:43.327Z,4.07
2023-04-16T16:23:11.611Z,4.97
2023-04-16T16:25:39.661Z,5.07
2023-04-16T16:28:08.089Z,6.43
2023-04-16T16:30:37.374Z,4.07
2023-04-16T16:33:05.628Z,3.93
2023-04-16T16:35:33.810Z,6.20
2023-04-16T16:38:01.926Z,5.23
2023-04-16T16:40:30.353Z,7.07
2023-04-16T16:42:58.621Z,5.90
2023-04-16T16:45:27.287Z,3.93
2023-04-16T16:47:58.940Z,6.97
2023-04-16T16:50:27.009Z,5.67
2023-04-16T16:52:54.949Z,4.80
2023-04-16T16:55:23.212Z,4.60
2023-04-16T16:57:51.366Z,7.57
2023-04-16T17:00:21.767Z,5.10
2023-04-16T17:02:51.385Z,8.50
2023-04-16T17:05:21.332Z,7.37
2023-04-16T17:07:49.663Z,6.80
2023-04-16T17:10:20.543Z,9.10
2023-04-16T17:12:49.257Z,6.17
2023-04-16T17:15:21.199Z,6.63
2023-04-16T17:17:50.001Z,14.40
2023-04-16T17:20:18.161Z,23.67
2023-04-16T17:22:47.474Z,35.93
2023-04-16T17:25:15.920Z,22.60
2023-04-16T17:27:44.119Z,10.67
2023-04-16T17:30:12.739Z,8.73
2023-04-16T17:32:40.867Z,5.33
2023-04-16T17:35:11.085Z,5.67
2023-04-16T17:37:39.253Z,6.43
2023-04-16T17:40:10.246Z,7.23
2023-04-16T17:42:38.962Z,6.77
2023-04-16T17:45:09.826Z,7.17
2023-04-16T17:47:38.239Z,5.63
2023-04-16T17:50:07.583Z,6.93
2023-04-16T17:52:37.691Z,6.23
2023-04-16T17:55:06.105Z,7.37
2023-04-16T17:57:35.835Z,4.83
2023-04-16T18:00:05.754Z,7.00
2023-04-16T18:02:34.136Z,5.57
2023-04-16T18:05:02.326Z,7.40
2023-04-16T18:07:30.441Z,6.20
2023-04-16T18:09:58.784Z,7.80
2023-04-16T18:12:26.843Z,6.00
2023-04-16T18:14:56.355Z,6.10
2023-04-16T18:17:24.447Z,6.63
2023-04-16T18:19:52.655Z,8.70
2023-04-16T18:22:21.425Z,6.27
2023-04-16T18:24:49.661Z,6.30
2023-04-16T18:27:21.553Z,6.73
2023-04-16T18:29:50.176Z,6.90
2023-04-16T18:32:20.833Z,5.77
2023-04-16T18:34:49.297Z,6.00
2023-04-16T18:37:17.645Z,6.07
2023-04-16T18:39:45.886Z,6.30
2023-04-16T18:42:14.045Z,5.57
2023-04-16T18:44:42.447Z,5.53
2023-04-16T18:47:10.633Z,5.33
2023-04-16T18:49:40.142Z,4.90
2023-04-16T18:52:08.851Z,5.40
2023-04-16T18:54:38.084Z,5.87
2023-04-16T18:57:08.835Z,4.97
2023-04-16T18:59:37.003Z,5.03
2023-04-16T19:02:05.129Z,6.10
2023-04-16T19:04:33.294Z,7.13
2023-04-16T19:07:02.798Z,7.03
2023-04-16T19:09:31.121Z,5.50
2023-04-16T19:11:59.159Z,4.70
2023-04-16T19:14:27.361Z,5.23
2023-04-16T19:16:57.941Z,6.40
2023-04-16T19:19:25.940Z,7.10
2023-04-16T19:21:54.269Z,7.07
2023-04-16T19:24:23.732Z,5.00
2023-04-16T19:26:51.690Z,7.37
2023-04-16T19:29:19.670Z,4.93
2023-04-16T19:31:48.248Z,4.97
2023-04-16T19:34:16.847Z,6.47
2023-04-16T19:36:45.559Z,5.27
2023-04-16T19:39:13.580Z,6.63
2023-04-16T19:41:42.852Z,5.13
2023-04-16T19:44:11.089Z,5.80
2023-04-16T19:46:39.037Z,4.20
2023-04-16T19:49:07.419Z,4.60
2023-04-16T19:51:35.606Z,4.90
2023-04-16T19:54:03.577Z,4.13
2023-04-16T19:56:31.607Z,4.20
2023-04-16T19:59:02.174Z,4.87
2023-04-16T20:01:31.228Z,5.13
2023-04-16T20:03:59.296Z,4.90
2023-04-16T20:06:27.825Z,5.30
2023-04-16T20:08:56.746Z,7.33
2023-04-16T20:11:24.813Z,5.07
2023-04-16T20:13:53.062Z,7.43
2023-04-16T20:16:24.119Z,6.70
2023-04-16T20:18:54.350Z,5.90
2023-04-16T20:21:22.783Z,5.17
2023-04-16T20:23:50.745Z,4.80
2023-04-16T20:26:19.385Z,5.00
2023-04-16T20:28:47.602Z,7.43
2023-04-16T20:31:15.734Z,6.27
2023-04-16T20:33:45.024Z,5.17
2023-04-16T20:36:13.245Z,5.23
2023-04-16T20:38:42.435Z,7.27
2023-04-16T20:41:20.971Z,6.17
2023-04-16T20:43:53.045Z,7.13
2023-04-16T20:46:24.420Z,6.30
2023-04-16T20:48:54.080Z,6.37
2023-04-16T20:51:22.559Z,8.67
2023-04-16T20:53:52.268Z,6.93
2023-04-16T20:56:20.630Z,8.63
2023-04-16T20:58:48.697Z,6.70
2023-04-16T21:01:18.486Z,5.87
2023-04-16T21:03:46.709Z,7.00
2023-04-16T21:06:17.751Z,5.07
2023-04-16T21:08:45.776Z,6.80
2023-04-16T21:11:13.732Z,6.53
2023-04-16T21:13:41.750Z,6.90
2023-04-16T21:16:12.477Z,6.23
2023-04-16T21:18:40.875Z,7.27
2023-04-16T21:21:08.895Z,7.20
2023-04-16T21:23:38.398Z,8.90
2023-04-16T21:26:06.412Z,7.70
2023-04-16T21:28:34.382Z,7.33
2023-04-16T21:31:02.309Z,7.73
2023-04-16T21:33:30.603Z,8.70
2023-04-16T21:35:58.671Z,7.73
2023-04-16T21:38:26.671Z,8.13
2023-04-16T21:40:56.740Z,7.73
2023-04-16T21:43:25.159Z,8.47
2023-04-16T21:45:53.924Z,10.20
2023-04-16T21:48:21.903Z,8.80
2023-04-16T21:50:56.121Z,8.90
2023-04-16T21:53:24.063Z,10.53
2023-04-16T21:55:52.344Z,9.50
2023-04-16T21:58:21.769Z,9.50
2023-04-16T22:00:49.799Z,8.70
2023-04-16T22:03:18.757Z,10.80
2023-04-16T22:05:47.076Z,9.53
2023-04-16T22:08:24.035Z,9.53
2023-04-16T22:10:52.789Z,9.87
2023-04-16T22:13:22.843Z,10.27
2023-04-16T22:15:50.855Z,9.97
2023-04-16T22:18:19.057Z,10.97
2023-04-16T22:20:47.314Z,10.17
2023-04-16T22:23:15.879Z,10.93
2023-04-16T22:25:46.245Z,12.10
2023-04-16T22:28:14.215Z,11.73
2023-04-16T22:30:43.536Z,11.67
2023-04-16T22:33:11.579Z,12.17
2023-04-16T22:35:39.881Z,11.53
2023-04-16T22:38:07.837Z,12.77
2023-04-16T22:40:35.873Z,10.20
2023-04-16T22:43:03.806Z,10.03
2023-04-16T22:45:31.784Z,9.23
2023-04-16T22:48:01.214Z,9.60
2023-04-16T22:50:31.471Z,9.97
2023-04-16T22:52:59.535Z,9.90
2023-04-16T22:55:27.604Z,12.10
2023-04-16T22:57:55.646Z,10.30
2023-04-16T23:00:24.962Z,11.10
2023-04-16T23:02:53.038Z,9.73
2023-04-16T23:05:22.606Z,10.47
2023-04-16T23:07:50.621Z,12.07
2023-04-16T23:10:18.702Z,10.97
2023-04-16T23:12:46.683Z,11.40
2023-04-16T23:15:14.607Z,11.30
2023-04-16T23:17:42.683Z,11.23
2023-04-16T23:20:12.263Z,11.17
2023-04-16T23:22:41.898Z,11.23
2023-04-16T23:25:10.995Z,11.40
2023-04-16T23:27:39.073Z,12.00
2023-04-16T23:30:08.316Z,12.17
2023-04-16T23:32:36.331Z,11.77
2023-04-16T23:35:04.364Z,11.53
2023-04-16T23:37:32.449Z,12.63
2023-04-16T23:40:01.885Z,12.90
2023-04-16T23:42:29.834Z,12.63
2023-04-16T23:44:57.849Z,12.67
2023-04-16T23:47:25.830Z,13.80
2023-04-16T23:49:53.852Z,14.60
2023-04-16T23:52:21.972Z,14.03
2023-04-16T23:54:49.926Z,14.43
2023-04-16T23:57:19.183Z,14.97
2023-04-16T23:59:47.154Z,15.60
